Aviation Digital Data Service (ADDS)

Output produced by METARs form (0558 UTC 18 January 2018)
found at http://www.aviationweather.gov/adds/metars/
 
METAR text: KSLO 180535Z AUTO 20007KT 10SM CLR M08/M12 A3046 RMK AO2 T10851121
Conditions at: KSLO (SALEM/LECKRONE , IL, US) observed 0535 UTC 18 January 2018
Temperature: -8.5°C (17°F)
Dewpoint: -12.1°C (10°F) [RH = 75%]
Pressure (altimeter): 30.46 inches Hg (1031.6 mb)
Winds: from the SSW (200 degrees) at 8 MPH (7 knots; 3.6 m/s)
Visibility: 10 or more miles (16+ km)
Ceiling: at least 12,000 feet AGL
Clouds: sky clear below 12,000 feet AGL
Weather: automated observation with no human augmentation;
there may or may not be significant weather present at this time